createdAt,value
2022-10-06T05:44:29.805Z,101569.06
2022-10-06T05:47:29.509Z,101573.97
2022-10-06T05:50:24.672Z,101580.06
2022-10-06T05:53:24.723Z,101584.78
2022-10-06T05:56:37.764Z,101587.19
2022-10-06T05:59:32.665Z,101554.31
2022-10-06T06:02:15.895Z,101602.78
2022-10-06T06:05:09.086Z,101601.91
2022-10-06T06:07:51.005Z,101586.94
2022-10-06T06:10:42.701Z,101605.16
2022-10-06T06:13:42.998Z,101608.72
2022-10-06T06:16:34.164Z,101616.31
2022-10-06T06:19:29.153Z,101622.25
2022-10-06T06:22:25.093Z,101622.38
2022-10-06T06:25:14.875Z,101629.53
2022-10-06T06:28:12.586Z,101637.91
2022-10-06T06:30:45.455Z,101635.59
2022-10-06T06:33:45.539Z,101619.84
2022-10-06T06:36:32.031Z,101618.44
2022-10-06T06:39:43.141Z,101653.56
2022-10-06T06:42:30.008Z,101635.81
2022-10-06T06:45:06.295Z,101676.81
2022-10-06T06:47:57.085Z,101679.09
2022-10-06T06:50:37.656Z,101687.25
2022-10-06T06:53:21.472Z,101683.78
2022-10-06T06:56:08.729Z,101692.00
2022-10-06T06:58:53.780Z,101694.00
2022-10-06T07:01:22.323Z,101683.09
2022-10-06T07:03:59.873Z,101697.91
2022-10-06T07:06:40.535Z,101699.03
2022-10-06T07:09:35.563Z,101705.47
2022-10-06T07:18:09.344Z,101721.41
2022-10-06T07:21:02.859Z,101701.69
2022-10-06T07:23:50.754Z,101726.53
2022-10-06T07:26:37.937Z,101723.78
2022-10-06T07:29:15.961Z,101741.41
2022-10-06T07:32:03.362Z,101752.81
2022-10-06T07:37:30.690Z,101749.38
2022-10-06T07:40:09.977Z,101744.50
2022-10-06T07:42:53.919Z,101751.44
2022-10-06T07:45:45.388Z,101756.69
2022-10-06T07:48:24.289Z,101763.75
2022-10-06T07:51:02.884Z,101736.84
2022-10-06T07:53:40.646Z,101768.66
2022-10-06T07:56:27.252Z,101778.94
2022-10-06T07:59:07.301Z,101774.53
2022-10-06T08:01:46.165Z,101782.25
2022-10-06T08:04:42.042Z,101772.28
2022-10-06T08:07:21.910Z,101765.72
2022-10-06T08:10:01.079Z,101777.03
2022-10-06T08:12:51.455Z,101783.38
2022-10-06T08:19:22.500Z,101784.34
2022-10-06T11:12:21.720Z,101828.56
2022-10-06T11:15:09.867Z,101820.13
2022-10-06T11:17:50.377Z,101819.34
2022-10-06T11:20:54.784Z,101821.03
2022-10-06T11:23:47.224Z,101824.38
2022-10-06T11:26:21.081Z,101821.34
2022-10-06T11:29:15.232Z,101817.38
2022-10-06T11:32:14.836Z,101805.28
2022-10-06T11:34:45.296Z,101799.31
2022-10-06T11:37:12.002Z,101819.03
2022-10-06T11:40:17.106Z,101812.66
2022-10-06T11:42:54.354Z,101809.19
2022-10-06T11:45:35.435Z,101812.31
2022-10-06T11:48:25.335Z,101809.53
2022-10-06T11:50:55.777Z,101805.28
2022-10-06T11:53:40.905Z,101810.00
2022-10-06T11:56:38.582Z,101796.63
2022-10-06T11:59:25.655Z,101799.66
2022-10-06T12:02:48.335Z,101796.41
2022-10-06T12:05:56.296Z,101790.59
2022-10-06T12:08:44.459Z,101788.91
2022-10-06T12:11:37.978Z,101777.03
2022-10-06T12:17:19.566Z,101791.47
2022-10-06T12:20:15.816Z,101746.78
2022-10-06T12:22:51.587Z,101786.47
2022-10-06T12:25:47.814Z,101780.03
2022-10-06T12:28:42.263Z,101784.59
2022-10-06T12:31:40.135Z,101777.28
2022-10-06T12:34:49.465Z,101774.84
2022-10-06T12:37:53.113Z,101775.56
2022-10-06T12:40:59.614Z,101769.53
2022-10-06T12:43:38.029Z,101768.56
2022-10-06T12:46:23.043Z,101761.19
2022-10-06T12:49:34.871Z,101768.41
2022-10-06T12:52:47.569Z,101755.94
2022-10-06T12:55:33.124Z,101752.09
2022-10-06T12:58:02.656Z,101711.53
2022-10-06T13:00:41.359Z,101725.31
2022-10-06T13:03:25.276Z,101754.94
2022-10-06T13:05:59.112Z,101762.28
2022-10-06T13:08:35.715Z,101754.03
2022-10-06T13:11:25.012Z,101759.44
2022-10-06T13:13:54.759Z,101747.28
2022-10-06T13:16:31.775Z,101748.78
2022-10-06T13:19:03.850Z,101754.38
2022-10-06T13:21:34.835Z,101748.00
2022-10-06T13:24:04.069Z,101750.53
2022-10-06T13:26:34.154Z,101747.22
2022-10-06T13:29:01.318Z,101747.06
2022-10-06T13:31:33.657Z,101746.22
2022-10-06T13:34:24.736Z,101747.44
2022-10-06T13:37:02.761Z,101739.28
2022-10-06T13:39:44.852Z,101745.28
2022-10-06T13:42:22.877Z,101721.13
2022-10-06T13:45:04.028Z,101738.09
2022-10-06T13:47:34.526Z,101734.28
2022-10-06T13:50:19.599Z,101737.75
2022-10-06T13:52:54.618Z,101742.19
2022-10-06T13:55:26.715Z,101734.25
2022-10-06T13:58:06.821Z,101721.34
2022-10-06T14:01:01.212Z,101739.44
2022-10-06T14:06:11.382Z,101729.59
2022-10-06T14:08:52.992Z,101695.88
2022-10-06T14:11:38.042Z,101722.94
2022-10-06T14:14:16.835Z,101728.94
2022-10-06T14:16:52.922Z,101721.56
2022-10-06T14:19:35.649Z,101730.91
2022-10-06T14:22:07.810Z,101722.03
2022-10-06T14:24:37.541Z,101720.75
2022-10-06T14:27:07.933Z,101723.34
2022-10-06T14:29:43.821Z,101723.13
2022-10-06T14:32:33.877Z,101721.81
2022-10-06T14:35:04.923Z,101715.34
2022-10-06T14:37:42.120Z,101710.50
2022-10-06T14:40:14.804Z,101693.66
2022-10-06T14:43:01.958Z,101693.22
2022-10-06T14:45:28.898Z,101718.97
2022-10-06T14:48:31.757Z,101717.00
2022-10-06T14:51:20.763Z,101713.75
2022-10-06T14:54:00.417Z,101701.22
2022-10-06T14:56:41.123Z,101712.25
2022-10-06T14:59:17.174Z,101640.88
2022-10-06T15:01:47.993Z,101704.59
2022-10-06T15:04:26.407Z,101702.78
2022-10-06T15:07:12.428Z,101674.41
2022-10-06T15:09:43.948Z,101663.34
2022-10-06T15:12:15.464Z,101702.94
2022-10-06T15:14:42.422Z,101700.91
2022-10-06T15:17:31.604Z,101701.75
2022-10-06T15:20:10.091Z,101701.38
2022-10-06T15:22:46.417Z,101702.75
2022-10-06T15:26:10.856Z,101699.31
2022-10-06T15:29:22.753Z,101700.25
2022-10-06T15:31:54.670Z,101694.00
2022-10-06T15:34:25.333Z,101690.28
2022-10-06T15:36:56.524Z,101654.94
2022-10-06T15:39:53.323Z,101687.72
2022-10-06T15:42:24.317Z,101695.91
2022-10-06T15:44:54.736Z,101689.22
2022-10-06T15:47:24.983Z,101684.31
2022-10-06T15:50:03.904Z,101679.44
2022-10-06T15:52:39.460Z,101671.69
2022-10-06T15:55:15.782Z,101676.47
2022-10-06T15:57:45.903Z,101677.56
2022-10-06T16:00:19.159Z,101688.59
2022-10-06T16:02:57.416Z,101684.31
2022-10-06T16:05:44.451Z,101674.22
2022-10-06T16:08:17.272Z,101682.75
2022-10-06T16:10:50.674Z,101688.41
2022-10-06T16:13:20.067Z,101678.88
2022-10-06T16:15:57.591Z,101688.75
2022-10-06T16:18:31.900Z,101693.31
2022-10-06T16:20:58.898Z,101678.19
2022-10-06T16:23:28.305Z,101678.84
2022-10-06T16:25:55.217Z,101680.34
2022-10-06T16:28:27.078Z,101694.38
2022-10-06T16:30:57.343Z,101685.28
2022-10-06T16:33:28.782Z,101646.97
2022-10-06T16:36:00.086Z,101681.84
2022-10-06T16:38:33.588Z,101688.59
2022-10-06T16:41:05.546Z,101690.66
2022-10-06T16:43:35.975Z,101691.31
2022-10-06T16:46:08.313Z,101681.09
2022-10-06T16:48:42.311Z,101689.19
2022-10-06T16:51:24.182Z,101691.00
2022-10-06T16:53:54.224Z,101694.63
2022-10-06T16:56:32.323Z,101695.63
2022-10-06T16:59:03.932Z,101662.31
2022-10-06T17:01:40.642Z,101694.53
2022-10-06T17:04:13.280Z,101693.22
2022-10-06T17:06:44.686Z,101693.16
2022-10-06T17:09:20.543Z,101699.25
2022-10-06T17:11:55.982Z,101706.63
2022-10-06T17:14:24.315Z,101705.00
2022-10-06T17:17:01.870Z,101697.19
2022-10-06T17:19:32.285Z,101713.44
2022-10-06T17:22:01.957Z,101707.19
2022-10-06T17:24:32.135Z,101710.41
2022-10-06T17:27:04.070Z,101712.75
2022-10-06T17:29:30.937Z,101716.00
2022-10-06T17:31:59.596Z,101716.34
2022-10-06T17:34:41.345Z,101716.03
2022-10-06T17:37:20.923Z,101715.56
2022-10-06T17:39:54.818Z,101726.09
2022-10-06T17:42:24.532Z,101717.41
2022-10-06T17:45:00.528Z,101727.06
2022-10-06T17:47:39.052Z,101716.47
2022-10-06T17:50:22.489Z,101722.56
2022-10-06T17:52:53.903Z,101728.94
2022-10-06T17:55:30.129Z,101730.84
2022-10-06T17:57:59.363Z,101708.69
2022-10-06T18:00:37.019Z,101727.06
2022-10-06T18:03:09.898Z,101717.28
2022-10-06T18:05:37.983Z,101709.75
2022-10-06T18:08:14.217Z,101722.41
2022-10-06T18:11:23.390Z,101726.72
2022-10-06T18:13:53.215Z,101721.56
2022-10-06T18:16:27.727Z,101710.69
2022-10-06T18:18:56.450Z,101684.72
2022-10-06T18:21:26.398Z,101722.28
2022-10-06T18:24:09.193Z,101710.69
2022-10-06T18:26:40.659Z,101689.97
2022-10-06T18:29:09.439Z,101727.59
2022-10-06T18:31:48.755Z,101719.28
2022-10-06T18:37:10.775Z,101712.41
2022-10-06T18:39:40.196Z,101709.66
2022-10-06T18:42:08.505Z,101725.75
2022-10-06T18:44:54.730Z,101724.53
2022-10-06T18:47:44.746Z,101718.03
2022-10-06T18:50:23.197Z,101722.72
2022-10-06T18:52:50.193Z,101710.09
2022-10-06T18:55:17.350Z,101711.84
2022-10-06T18:57:45.325Z,101716.94
2022-10-06T19:00:15.805Z,101714.47
2022-10-06T19:03:02.885Z,101716.53
2022-10-06T19:05:31.071Z,101724.47
2022-10-06T19:08:08.238Z,101713.19
2022-10-06T19:11:20.742Z,101716.25
2022-10-06T19:13:49.404Z,101676.78
2022-10-06T19:16:42.301Z,101705.66
2022-10-06T19:19:19.568Z,101713.16
2022-10-06T19:22:26.053Z,101716.56
2022-10-06T19:25:02.059Z,101717.53
2022-10-06T19:27:33.490Z,101714.72
2022-10-06T19:30:05.734Z,101719.13
2022-10-06T19:32:36.317Z,101722.03
2022-10-06T19:35:10.683Z,101719.34
2022-10-06T19:37:42.341Z,101694.50
2022-10-06T19:40:32.846Z,101723.84
2022-10-06T19:43:05.342Z,101724.47
2022-10-06T19:45:32.227Z,101720.84
2022-10-06T19:48:10.822Z,101725.72
2022-10-06T19:50:39.159Z,101718.97
2022-10-06T19:53:14.695Z,101695.69
2022-10-06T19:56:01.597Z,101740.44
2022-10-06T19:58:33.540Z,101725.34
2022-10-06T20:01:13.368Z,101734.28
2022-10-06T20:03:41.731Z,101667.25
2022-10-06T20:06:37.078Z,101734.91
2022-10-06T20:09:23.562Z,101736.59
2022-10-06T20:11:55.516Z,101728.56
2022-10-06T20:14:27.099Z,101725.56
2022-10-06T20:17:03.917Z,101730.63
2022-10-06T20:19:33.377Z,101726.66
2022-10-06T20:22:23.167Z,101730.28
2022-10-06T20:24:54.557Z,101733.38
2022-10-06T20:27:21.715Z,101728.28
2022-10-06T20:30:15.245Z,101729.97
2022-10-06T20:32:44.707Z,101734.44
2022-10-06T20:35:26.845Z,101738.16
2022-10-06T20:37:59.735Z,101732.75
2022-10-06T20:40:49.436Z,101727.59
2022-10-06T20:43:19.165Z,101730.16
2022-10-06T20:46:07.960Z,101728.22
2022-10-06T20:48:42.878Z,101733.69
2022-10-06T20:51:32.786Z,101726.44
2022-10-06T20:54:05.552Z,101725.78
2022-10-06T20:56:34.929Z,101730.19
2022-10-06T20:59:03.675Z,101721.19
2022-10-06T21:01:39.947Z,101728.91
2022-10-06T21:04:12.914Z,101710.00
2022-10-06T21:07:26.808Z,101724.28
2022-10-06T21:10:19.056Z,101720.06
2022-10-06T21:13:15.163Z,101711.13
2022-10-06T21:15:47.465Z,101714.06
2022-10-06T21:18:24.512Z,101709.31
2022-10-06T21:21:09.287Z,101703.22
2022-10-06T21:23:44.758Z,101705.59
2022-10-06T21:26:18.056Z,101683.28
2022-10-06T21:28:55.217Z,101711.84
2022-10-06T21:31:29.508Z,101714.47
2022-10-06T21:34:03.668Z,101714.41
2022-10-06T21:36:50.621Z,101704.97
2022-10-06T21:39:25.013Z,101701.50
2022-10-06T21:41:55.102Z,101708.50
2022-10-06T21:44:26.697Z,101695.44
2022-10-06T21:47:13.585Z,101704.22
2022-10-06T21:50:16.012Z,101692.63
2022-10-06T21:53:05.382Z,101694.19
2022-10-06T21:55:35.496Z,101697.50
2022-10-06T21:58:11.381Z,101686.34
2022-10-06T22:00:49.375Z,101686.88
2022-10-06T22:03:21.764Z,101674.47
2022-10-06T22:05:57.589Z,101676.41
2022-10-06T22:08:45.904Z,101684.88
2022-10-06T22:11:23.065Z,101680.84
2022-10-06T22:13:57.755Z,101682.28
2022-10-06T22:16:37.211Z,101637.50
2022-10-06T22:19:11.559Z,101674.53
2022-10-06T22:22:12.960Z,101674.53
2022-10-06T22:24:46.040Z,101664.94
2022-10-06T22:27:16.528Z,101668.34
2022-10-06T22:29:51.107Z,101666.59
2022-10-06T22:32:29.106Z,101680.16
2022-10-06T22:35:07.341Z,101645.47
2022-10-06T22:37:41.753Z,101662.50
2022-10-06T22:40:25.632Z,101633.53
2022-10-06T22:42:56.240Z,101664.50
2022-10-06T22:45:35.754Z,101656.09
2022-10-06T22:48:08.455Z,101652.97
2022-10-06T22:50:47.436Z,101657.91
2022-10-06T22:53:41.124Z,101637.69
2022-10-06T22:59:16.284Z,101628.91
2022-10-06T23:02:01.145Z,101642.47
2022-10-06T23:04:33.872Z,101632.84
2022-10-06T23:07:26.898Z,101641.41
2022-10-06T23:10:06.339Z,101630.22
2022-10-06T23:12:46.737Z,101595.50
2022-10-06T23:15:30.712Z,101643.91
2022-10-06T23:18:04.780Z,101642.72
2022-10-06T23:20:41.962Z,101633.16
2022-10-06T23:23:28.819Z,101630.06
2022-10-06T23:26:07.944Z,101634.97
2022-10-06T23:28:40.911Z,101597.16
2022-10-06T23:31:29.489Z,101626.38
2022-10-06T23:33:59.921Z,101617.34
2022-10-06T23:36:33.097Z,101592.50
2022-10-06T23:39:00.093Z,101621.94
2022-10-06T23:41:35.723Z,101615.81
2022-10-06T23:44:09.589Z,101604.81
2022-10-06T23:46:36.388Z,101609.69
2022-10-06T23:49:14.927Z,101613.72
2022-10-06T23:51:43.306Z,101615.66
2022-10-06T23:54:19.223Z,101583.03
2022-10-06T23:56:55.796Z,101614.50
2022-10-06T23:59:23.375Z,101622.72
